logo
Search for airport 
image banner adimage banner adimage banner ad
image banner ad

SI7B - Fazenda Flores

Located in Piraquê, Brazil

ICAO - SI7B, IATA -

Data provided by Airmate  

General information

Coordinates: S6°34'9" W48°12'44"
Elevation is 590 feet MSL.
Magnetic variation is -21.116666667° East
View others Airports in Tocatins

Operational data

Special qualification required
Current time UTC:
Current local time:
Weather at : - ( 0 km )
METAR: ZMUB 282000Z 28003MPS 9999 SCT033 03/01 Q1006 NOSIG RMK QFE648.3 87 NT
View NOTAMs / SUP AIP / TFR affecting this airport [VIEW]
Communications frequencies: [VIEW]

Runways:

RWY identifierQFULength (ft)Width (ft)SurfaceLDA (ft)
18295359GRAVEL
36295359GRAVEL

Airport contact information

Address: Piraquê Brazil

Satellite view of SI7B